Brownstown, PA (17508)

7:14 AM EDT on July 26, 2016 (GMT -0400)
Lititz Run, near Millport Conservancy | | Change Station
Active Advisory: Special Statement

Elev 410 ft 40.14 °N, 76.26 °W | Updated 13 minutes ago

Fog
Fog
70.9 °F
Feels Like 70.9 °F
N
0.0
Wind Variable Wind from SSW
Gusts 0.0 mph

Today
High -- | Low -- °F
--% Chance of Precip.
Yesterday
High -- | Low -- °F
Precip. -- in
Pressure 29.95 in
Visibility 0.2 miles
Clouds
Dew Point 71 °F
Humidity 100%
Rainfall 0.00 in
Snow Depth Not available.
5:57 AM 8:24 PM
Waning Gibbous, 56% visible
METAR KLNS 261053Z 30004KT M1/4SM FG VV002 21/21 A2996 RMK AO2 SLP141 T02110211
Pressure 29.95 in
Visibility 0.2 miles
Clouds
Dew Point 71 °F
Humidity 100%
Rainfall 0.00 in
Snow Depth Not available.
5:57 AM 8:24 PM
Waning Gibbous, 56% visible
METAR KLNS 261053Z 30004KT M1/4SM FG VV002 21/21 A2996 RMK AO2 SLP141 T02110211

10-Day Weather Forecast

Almanac

Astronomy

Jul. 26, 2016 Rise Set
Actual Time
Civil Twilight
Nautical Twilight
Astronomical Twilight
Moon
Length of Visible Light
Length of Day
Tomorrow will be .
, % of the Moon is Illuminated

Today's Extremes

State Highs State Lows

Community

WunderPhotos

Upload Photos

1,927,572 photos uploaded!

WunderBlog® & News

Nearby

Air Quality

  Air Quality AQ Index Pollutant
Not available.

Snow Depth

Station Depth Elevation

Earthquake Activity

City Distance Mag. Time & Date
Minimum magnitude displayed is 2.5.

Coastal Water Temperatures

Place Temperature

Stations

Nearby Weather Stations

Station Location Temp. Windchill Dew Point Humidity Wind Precip. Elev Updated Type
                   

Watches & Warnings

Special Statement
Issued: 6:56 AM EDT Jul. 26, 2016 – National Weather Service

... Patchy dense fog...

There are patches of dense fog across the region this morning.
Please use caution if you are traveling this morning. The fog
should burn away rather quickly this morning... but some locations
will hold onto the fog or low clouds until 9 am EDT.



656 am EDT Tue Jul 26 2016

... Patchy dense fog...

There are patches of dense fog across the region this morning.
Please use caution if you are traveling this morning. The fog
should burn away rather quickly this morning... but some locations
will hold onto the fog or low clouds until 9 am EDT.



656 am EDT Tue Jul 26 2016

... Patchy dense fog...

There are patches of dense fog across the region this morning.
Please use caution if you are traveling this morning. The fog
should burn away rather quickly this morning... but some locations
will hold onto the fog or low clouds until 9 am EDT.